Time;durP1;ratioP1;P1;durP2;ratioP2;P2;SDS_P1;SDS_P2;PMS_P1;PMS_P2;Temp;Humidity;BMP_temperature;BMP_pressure;BME280_temperature;BME280_humidity;BME280_pressure;Samples;Min_cycle;Max_cycle;Signal;HPM_P1;HPM_P2
2024/02/29 00:00:55;;;;;;;;;;;;;;;3.49;100.00;100802.81;4969775;28;20082;-69
2024/02/29 00:03:24;;;;;;;33.38;17.92;;;;;;;3.50;100.00;100798.44;4963598;28;19929;-69
2024/02/29 00:05:53;;;;;;;34.53;19.38;;;;;;;3.54;100.00;100797.53;4945856;28;20685;-67
2024/02/29 00:08:22;;;;;;;27.35;16.90;;;;;;;3.46;100.00;100776.66;4941880;28;21062;-69
2024/02/29 00:10:51;;;;;;;34.08;18.70;;;;;;;3.55;100.00;100794.03;4956316;28;20044;-69
2024/02/29 00:13:20;;;;;;;33.20;18.27;;;;;;;3.51;100.00;100793.19;4940572;28;20051;-68
2024/02/29 00:15:49;;;;;;;33.08;18.95;;;;;;;3.47;100.00;100794.09;4948333;28;20109;-67
2024/02/29 00:18:21;;;;;;;30.05;18.42;;;;;;;3.44;100.00;100788.06;4951621;28;20083;-69
2024/02/29 00:20:50;;;;;;;30.88;17.88;;;;;;;3.47;100.00;100801.09;4953365;28;20051;-66
2024/02/29 00:23:18;;;;;;;34.75;18.48;;;;;;;3.47;100.00;100793.22;4982501;28;20055;-66
2024/02/29 00:25:50;;;;;;;31.33;17.73;;;;;;;3.46;100.00;100794.16;4975720;28;20050;-66
2024/02/29 00:28:18;;;;;;;32.60;18.98;;;;;;;3.45;100.00;100787.16;4973281;28;20078;-69
2024/02/29 00:30:49;;;;;;;32.08;18.65;;;;;;;3.44;100.00;100790.66;4961909;28;20904;-69
2024/02/29 00:33:20;;;;;;;33.67;18.17;;;;;;;3.47;100.00;100788.84;4956901;28;20066;-70
2024/02/29 00:35:48;;;;;;;33.22;19.92;;;;;;;3.47;100.00;100788.00;4949386;28;20050;-70
2024/02/29 00:38:21;;;;;;;30.85;18.17;;;;;;;3.42;100.00;100780.22;4965153;28;20044;-67
2024/02/29 00:40:49;;;;;;;28.58;17.45;;;;;;;3.46;100.00;100783.66;4943517;28;20043;-68
2024/02/29 00:43:17;;;;;;;31.65;18.90;;;;;;;3.46;100.00;100784.50;4941721;28;20449;-70
2024/02/29 00:45:45;;;;;;;29.30;17.73;;;;;;;3.43;100.00;100774.09;4950567;28;20101;-69
2024/02/29 00:48:13;;;;;;;27.17;16.83;;;;;;;3.48;100.00;100777.50;4965059;28;20043;-69
2024/02/29 00:50:43;;;;;;;27.70;16.20;;;;;;;3.50;100.00;100773.13;4946425;28;20047;-69
2024/02/29 00:53:11;;;;;;;27.50;16.33;;;;;;;3.52;100.00;100770.50;4959485;28;20047;-70
2024/02/29 00:55:42;;;;;;;25.23;16.25;;;;;;;3.55;100.00;100769.59;4947285;28;20047;-67
2024/02/29 00:58:11;;;;;;;23.92;15.95;;;;;;;3.58;100.00;100766.94;4949006;28;20059;-69
2024/02/29 01:00:39;;;;;;;25.52;15.70;;;;;;;3.65;100.00;100764.19;4948623;28;20524;-68
2024/02/29 01:03:08;;;;;;;27.00;16.10;;;;;;;3.67;100.00;100757.19;4942432;28;20054;-68
2024/02/29 01:05:36;;;;;;;26.75;15.55;;;;;;;3.74;100.00;100764.09;4947665;28;20062;-69
2024/02/29 01:08:06;;;;;;;25.05;15.52;;;;;;;3.76;100.00;100754.47;4946228;28;20570;-68
2024/02/29 01:10:35;;;;;;;23.73;15.73;;;;;;;3.80;100.00;100760.50;4948109;28;20047;-67
2024/02/29 01:13:04;;;;;;;25.67;15.80;;;;;;;3.77;100.00;100758.84;4956770;28;20050;-70
2024/02/29 01:15:39;;;;;;;29.48;17.13;;;;;;;3.81;100.00;100757.00;4946901;28;20064;-70
2024/02/29 01:18:07;;;;;;;28.23;16.75;;;;;;;3.76;100.00;100749.25;4930522;28;20163;-68
2024/02/29 01:20:36;;;;;;;27.65;16.40;;;;;;;3.75;100.00;100754.50;4961043;28;20051;-68
2024/02/29 01:23:11;;;;;;;27.95;16.77;;;;;;;3.75;100.00;100746.63;4945052;28;20054;-68
2024/02/29 01:25:38;;;;;;;26.95;17.10;;;;;;;3.72;100.00;100747.53;4962570;28;20128;-68
2024/02/29 01:28:07;;;;;;;29.65;16.65;;;;;;;3.65;100.00;100743.25;4975089;28;20066;-65
2024/02/29 01:30:37;;;;;;;30.10;16.35;;;;;;;3.66;100.00;100744.13;4974168;28;20058;-64
2024/02/29 01:33:05;;;;;;;28.63;16.48;;;;;;;3.63;100.00;100739.78;4987616;28;20292;-64
2024/02/29 01:35:36;;;;;;;27.92;15.10;;;;;;;3.60;100.00;100739.84;4989578;28;20127;-69
2024/02/29 01:38:04;;;;;;;;;;;;;;;3.62;100.00;100734.59;4993355;28;20034;-65
2024/02/29 01:40:33;;;;;;;26.80;15.32;;;;;;;3.60;100.00;100728.50;4992065;28;20135;-68
2024/02/29 01:43:02;;;;;;;23.63;15.23;;;;;;;3.55;100.00;100725.94;5005924;28;20054;-66
2024/02/29 01:45:37;;;;;;;26.10;15.15;;;;;;;3.58;100.00;100728.53;4991938;28;20054;-66
2024/02/29 01:48:07;;;;;;;22.73;14.65;;;;;;;3.55;100.00;100715.47;4986322;28;20122;-66
2024/02/29 01:50:40;;;;;;;26.87;14.97;;;;;;;3.50;100.00;100706.78;4992183;28;20058;-65
2024/02/29 01:53:09;;;;;;;26.55;15.32;;;;;;;3.46;100.00;100705.13;4983751;28;20051;-66
2024/02/29 01:55:41;;;;;;;24.65;15.15;;;;;;;3.45;100.00;100704.25;5004066;28;20113;-68
2024/02/29 01:58:09;;;;;;;26.00;14.98;;;;;;;3.43;100.00;100697.31;5003829;28;20039;-66
2024/02/29 02:00:41;;;;;;;24.77;15.18;;;;;;;3.37;100.00;100690.38;4998557;28;20059;-67
2024/02/29 02:03:09;;;;;;;25.88;15.93;;;;;;;3.27;100.00;100687.91;4973244;28;20043;-66
2024/02/29 02:05:37;;;;;;;23.85;15.40;;;;;;;3.24;100.00;100687.94;4974937;28;20043;-66
2024/02/29 02:08:06;;;;;;;23.73;15.52;;;;;;;3.16;100.00;100686.28;4979423;28;20310;-68
2024/02/29 02:10:34;;;;;;;25.25;15.77;;;;;;;3.11;100.00;100688.09;4979566;28;20127;-68
2024/02/29 02:13:04;;;;;;;28.65;15.77;;;;;;;3.01;100.00;100691.69;4995436;28;20053;-68
2024/02/29 02:15:32;;;;;;;30.27;16.52;;;;;;;2.97;100.00;100687.41;4995354;28;21146;-67
2024/02/29 02:18:00;;;;;;;25.88;16.42;;;;;;;2.87;100.00;100692.72;4985643;28;20041;-67
2024/02/29 02:20:32;;;;;;;31.02;17.58;;;;;;;2.77;100.00;100687.63;4956070;28;21164;-68
2024/02/29 02:23:00;;;;;;;26.75;16.60;;;;;;;2.70;100.00;100682.44;4945792;28;20074;-66
2024/02/29 02:25:29;;;;;;;27.08;16.17;;;;;;;2.59;100.00;100674.72;4927002;29;20436;-67
2024/02/29 02:27:57;;;;;;;27.77;16.92;;;;;;;2.53;100.00;100677.38;4929887;28;20043;-65
2024/02/29 02:30:25;;;;;;;25.25;15.90;;;;;;;2.50;100.00;100673.97;4931384;28;20130;-69
2024/02/29 02:32:59;;;;;;;31.98;17.55;;;;;;;2.47;100.00;100667.88;4920961;28;20051;-67
2024/02/29 02:35:27;;;;;;;27.27;17.25;;;;;;;2.44;100.00;100662.69;4919853;28;20051;-69
2024/02/29 02:37:56;;;;;;;28.52;16.05;;;;;;;2.40;100.00;100660.09;4921223;28;20063;-66
2024/02/29 02:40:25;;;;;;;25.80;15.88;;;;;;;2.38;100.00;100654.88;4916761;29;20043;-67
2024/02/29 02:42:53;;;;;;;24.77;14.98;;;;;;;2.39;100.00;100664.47;4937722;28;20051;-69
2024/02/29 02:45:21;;;;;;;25.90;15.10;;;;;;;2.41;100.00;100661.84;4933061;28;20054;-69
2024/02/29 02:47:49;;;;;;;25.95;15.65;;;;;;;2.43;100.00;100655.72;4922194;29;20042;-69
2024/02/29 02:50:18;;;;;;;25.83;15.07;;;;;;;2.35;100.00;100635.78;4923511;28;21980;-68
2024/02/29 02:52:47;;;;;;;22.45;15.07;;;;;;;2.35;100.00;100634.03;4925355;28;20051;-68
2024/02/29 02:55:17;;;;;;;26.65;15.18;;;;;;;2.46;100.00;100649.59;4912475;29;20048;-67
2024/02/29 02:57:46;;;;;;;;;;;;;;;2.48;100.00;100645.22;4921899;28;20047;-67
2024/02/29 03:00:17;;;;;;;26.25;15.45;;;;;;;2.52;100.00;100646.06;4920453;28;19923;-69
2024/02/29 03:02:47;;;;;;;22.35;14.45;;;;;;;2.52;100.00;100641.66;4923810;29;20051;-66
2024/02/29 03:05:15;;;;;;;;;;;;;;;2.52;100.00;100633.00;4917324;28;20067;-67
2024/02/29 03:07:43;;;;;;;25.27;13.88;;;;;;;2.48;100.00;100645.22;4920481;29;19949;-69
2024/02/29 03:10:11;;;;;;;23.67;14.50;;;;;;;2.45;100.00;100632.19;4904683;29;20106;-66
2024/02/29 03:12:40;;;;;;;22.42;14.63;;;;;;;2.51;100.00;100636.50;4896318;29;20130;-70
2024/02/29 03:15:09;;;;;;;22.13;14.13;;;;;;;2.54;100.00;100624.22;4920808;28;20055;-69
2024/02/29 03:17:38;;;;;;;21.38;13.88;;;;;;;2.61;100.00;100625.91;4926046;28;20048;-70
2024/02/29 03:20:11;;;;;;;22.90;13.85;;;;;;;2.56;100.00;100611.16;4956037;28;20534;-69
2024/02/29 03:22:40;;;;;;;23.02;14.68;;;;;;;2.61;100.00;100619.81;4950543;28;20059;-70
2024/02/29 03:25:10;;;;;;;21.08;13.77;;;;;;;2.60;100.00;100618.06;4962626;28;20559;-70
2024/02/29 03:27:43;;;;;;;22.60;15.23;;;;;;;2.57;100.00;100618.09;4962730;28;20061;-69
2024/02/29 03:30:11;;;;;;;21.92;14.05;;;;;;;2.53;100.00;100604.19;4968138;28;20595;-68
2024/02/29 03:32:41;;;;;;;23.33;14.40;;;;;;;2.53;100.00;100601.59;4991697;28;20038;-69
2024/02/29 03:35:10;;;;;;;21.67;13.73;;;;;;;2.54;100.00;100595.47;4984637;28;20057;-70
2024/02/29 03:37:38;;;;;;;22.95;14.25;;;;;;;2.54;100.00;100600.69;4967113;28;20134;-67
2024/02/29 03:40:08;;;;;;;22.58;14.40;;;;;;;2.44;100.00;100581.66;4964508;28;20243;-67
2024/02/29 03:42:37;;;;;;;20.98;14.10;;;;;;;2.50;100.00;100595.53;4965429;28;20519;-68
2024/02/29 03:45:08;;;;;;;21.48;14.02;;;;;;;2.47;100.00;100589.47;4972111;28;20050;-69
2024/02/29 03:47:37;;;;;;;25.30;14.82;;;;;;;2.51;100.00;100599.91;4966573;28;20051;-67
2024/02/29 03:50:10;;;;;;;23.27;14.02;;;;;;;2.37;100.00;100571.25;4969168;28;20380;-67
2024/02/29 03:52:38;;;;;;;22.77;13.45;;;;;;;2.46;100.00;100587.72;4971284;28;20047;-68
2024/02/29 03:55:09;;;;;;;26.35;15.15;;;;;;;2.40;100.00;100577.34;4976854;28;20106;-66
2024/02/29 03:57:39;;;;;;;24.00;14.82;;;;;;;2.44;100.00;100589.50;4982439;28;20042;-69
2024/02/29 04:00:17;;;;;;;25.50;14.98;;;;;;;2.44;100.00;100588.63;4986320;28;20074;-66
2024/02/29 04:02:45;;;;;;;24.02;14.05;;;;;;;2.43;100.00;100589.50;5002287;28;20114;-67
2024/02/29 04:05:15;;;;;;;23.00;14.05;;;;;;;2.39;100.00;100591.28;4969212;28;20047;-64
2024/02/29 04:07:43;;;;;;;23.98;14.82;;;;;;;2.36;100.00;100582.63;4985312;28;20133;-65
2024/02/29 04:10:12;;;;;;;24.15;14.75;;;;;;;2.34;100.00;100587.00;4980879;28;20077;-67
2024/02/29 04:12:41;;;;;;;22.60;14.27;;;;;;;2.23;100.00;100573.16;4987804;28;20049;-68
2024/02/29 04:15:12;;;;;;;23.92;14.88;;;;;;;2.35;100.00;100581.75;4975472;28;20757;-68
2024/02/29 04:17:42;;;;;;;23.85;14.40;;;;;;;2.29;100.00;100579.19;4977777;28;20051;-66
2024/02/29 04:20:11;;;;;;;22.60;13.88;;;;;;;2.31;100.00;100581.81;4964687;28;20066;-66
2024/02/29 04:22:39;;;;;;;25.42;14.35;;;;;;;2.28;100.00;100576.59;4977650;28;20125;-69
2024/02/29 04:25:10;;;;;;;24.90;14.68;;;;;;;2.21;100.00;100575.78;4961810;28;20074;-68
2024/02/29 04:27:39;;;;;;;23.75;14.98;;;;;;;2.15;100.00;100581.09;4965099;28;20055;-69
2024/02/29 04:30:12;;;;;;;23.05;14.18;;;;;;;2.09;100.00;100568.94;4956527;28;20153;-69
2024/02/29 04:32:40;;;;;;;26.13;14.93;;;;;;;2.04;100.00;100569.88;4960968;28;20050;-67
2024/02/29 04:35:10;;;;;;;23.67;14.95;;;;;;;2.02;100.00;100572.50;4961051;28;20054;-66
2024/02/29 04:37:39;;;;;;;23.13;14.88;;;;;;;1.99;100.00;100569.94;4971860;28;20093;-66
2024/02/29 04:40:13;;;;;;;23.73;14.40;;;;;;;1.99;100.00;100566.44;4969627;28;20051;-69
2024/02/29 04:42:42;;;;;;;25.27;14.90;;;;;;;1.96;100.00;100569.09;4969089;28;20047;-69
2024/02/29 04:45:12;;;;;;;20.38;14.10;;;;;;;1.87;100.00;100564.81;4975366;28;20047;-67
2024/02/29 04:47:40;;;;;;;26.88;14.85;;;;;;;1.89;100.00;100573.47;4947450;28;20086;-69
2024/02/29 04:50:09;;;;;;;24.15;13.60;;;;;;;1.83;100.00;100564.84;4993893;28;20058;-64
2024/02/29 04:52:37;;;;;;;23.38;14.13;;;;;;;1.75;100.00;100560.56;5008062;28;20039;-67
2024/02/29 04:55:06;;;;;;;24.88;13.82;;;;;;;1.70;100.00;100562.34;4990323;28;20034;-64
2024/02/29 04:57:36;;;;;;;26.67;14.32;;;;;;;1.63;100.00;100565.88;4992584;28;20031;-69
2024/02/29 05:00:06;;;;;;;23.80;14.43;;;;;;;1.54;100.00;100562.50;4996544;28;20049;-67
2024/02/29 05:02:35;;;;;;;22.65;14.18;;;;;;;1.47;100.00;100556.44;4970775;28;20059;-69
2024/02/29 05:05:06;;;;;;;21.73;13.82;;;;;;;1.42;100.00;100563.41;4977947;28;20487;-68
2024/02/29 05:07:34;;;;;;;22.92;13.68;;;;;;;1.36;100.00;100564.34;4970939;28;20137;-67
2024/02/29 05:10:02;;;;;;;24.40;13.57;;;;;;;1.30;100.00;100559.16;4969472;28;20456;-68
2024/02/29 05:12:32;;;;;;;25.33;14.02;;;;;;;1.27;100.00;100556.56;4964472;28;20047;-69
2024/02/29 05:15:01;;;;;;;22.98;14.20;;;;;;;1.24;100.00;100558.34;4962657;28;20046;-67
2024/02/29 05:17:29;;;;;;;22.85;13.77;;;;;;;1.20;100.00;100560.09;4954505;28;20046;-69
2024/02/29 05:20:00;;;;;;;21.65;12.73;;;;;;;1.14;100.00;100548.84;4968466;28;20046;-69
2024/02/29 05:22:28;;;;;;;23.67;13.60;;;;;;;1.22;100.00;100560.09;4970822;28;20141;-67
2024/02/29 05:24:58;;;;;;;26.77;14.90;;;;;;;1.15;100.00;100540.13;4979719;28;20066;-68
2024/02/29 05:27:29;;;;;;;20.65;13.50;;;;;;;1.13;100.00;100534.94;4969707;28;20334;-68
2024/02/29 05:29:57;;;;;;;23.67;14.75;;;;;;;1.15;100.00;100534.91;4983068;28;20050;-65
2024/02/29 05:32:25;;;;;;;24.58;14.57;;;;;;;1.22;100.00;100537.50;4983286;28;20042;-67
2024/02/29 05:34:55;;;;;;;25.30;15.40;;;;;;;1.30;100.00;100537.41;4978723;28;20054;-68
2024/02/29 05:37:27;;;;;;;24.77;15.02;;;;;;;1.33;100.00;100526.97;4984945;28;20070;-70
2024/02/29 05:39:59;;;;;;;27.85;15.82;;;;;;;1.36;100.00;100532.16;4989690;28;20081;-68
2024/02/29 05:42:28;;;;;;;27.55;15.15;;;;;;;1.40;100.00;100531.28;4986226;28;20050;-68
2024/02/29 05:44:57;;;;;;;24.38;15.00;;;;;;;1.42;100.00;100519.94;4973088;28;20042;-66
2024/02/29 05:47:26;;;;;;;25.45;14.77;;;;;;;1.42;100.00;100522.53;4974286;28;20046;-67
2024/02/29 05:49:54;;;;;;;24.67;14.65;;;;;;;1.34;100.00;100515.66;4967371;28;20049;-67
2024/02/29 05:52:24;;;;;;;24.98;14.77;;;;;;;1.34;100.00;100518.28;4983504;28;20043;-68
2024/02/29 05:54:53;;;;;;;25.90;14.43;;;;;;;1.34;100.00;100520.88;4944287;28;20125;-68
2024/02/29 05:57:21;;;;;;;25.15;14.18;;;;;;;1.29;100.00;100510.47;4966105;28;20503;-68
2024/02/29 05:59:49;;;;;;;22.88;14.13;;;;;;;1.28;100.00;100516.56;4954927;28;20074;-68
2024/02/29 06:02:18;;;;;;;25.08;14.45;;;;;;;1.26;100.00;100518.31;4964170;28;20062;-68
2024/02/29 06:04:47;;;;;;;24.52;14.57;;;;;;;1.27;100.00;100519.19;4963439;28;20133;-68
2024/02/29 06:07:15;;;;;;;24.80;15.00;;;;;;;1.24;100.00;100517.47;4937961;28;20133;-68
2024/02/29 06:09:45;;;;;;;26.13;14.70;;;;;;;1.23;100.00;100528.78;4966623;28;20575;-68
2024/02/29 06:12:14;;;;;;;25.10;13.52;;;;;;;1.21;100.00;100521.84;4966083;28;20046;-68
2024/02/29 06:14:42;;;;;;;23.27;14.35;;;;;;;1.18;100.00;100529.69;4974650;28;20434;-68
2024/02/29 06:17:10;;;;;;;26.17;14.57;;;;;;;1.08;100.00;100515.00;4964271;28;20059;-68
2024/02/29 06:19:42;;;;;;;24.98;13.85;;;;;;;1.18;100.00;100527.06;4966423;28;20551;-69
2024/02/29 06:22:10;;;;;;;28.50;14.95;;;;;;;1.16;100.00;100529.69;4962832;28;20038;-68
2024/02/29 06:24:38;;;;;;;26.73;13.90;;;;;;;1.13;100.00;100523.63;4976439;28;20051;-69
2024/02/29 06:27:10;;;;;;;22.77;14.02;;;;;;;1.16;100.00;100531.44;4962466;28;20085;-68
2024/02/29 06:29:38;;;;;;;22.95;14.07;;;;;;;1.15;100.00;100532.31;4963506;28;20459;-69
2024/02/29 06:32:07;;;;;;;26.50;14.68;;;;;;;1.08;100.00;100512.38;4974231;28;21537;-67
2024/02/29 06:34:35;;;;;;;30.27;15.60;;;;;;;1.14;100.00;100525.38;4961055;28;20186;-67
2024/02/29 06:37:06;;;;;;;24.27;13.45;;;;;;;1.12;100.00;100516.69;4957504;28;20042;-69
2024/02/29 06:39:34;;;;;;;22.58;14.35;;;;;;;1.18;100.00;100524.47;4971299;28;20050;-66
2024/02/29 06:42:03;;;;;;;24.92;15.40;;;;;;;1.23;100.00;100525.31;4988539;28;20039;-66
2024/02/29 06:44:35;;;;;;;25.00;15.20;;;;;;;1.29;100.00;100517.44;4981335;28;20042;-68
2024/02/29 06:47:03;;;;;;;28.63;18.52;;;;;;;1.31;100.00;100513.06;4964926;28;20049;-66
2024/02/29 06:49:31;;;;;;;24.65;15.55;;;;;;;1.40;100.00;100513.88;4985386;28;20051;-70
2024/02/29 06:52:01;;;;;;;23.85;15.15;;;;;;;1.40;100.00;100513.88;4984418;28;20058;-69
2024/02/29 06:54:29;;;;;;;25.45;14.93;;;;;;;1.46;100.00;100515.56;4978797;28;20046;-69
2024/02/29 06:56:59;;;;;;;30.70;16.75;;;;;;;1.53;100.00;100513.78;4970903;28;20050;-70
2024/02/29 06:59:31;;;;;;;;;;;;;;;1.58;100.00;100515.44;4968402;28;20039;-68
2024/02/29 07:02:00;;;;;;;25.63;15.90;;;;;;;1.62;100.00;100506.72;4970532;28;19926;-70
2024/02/29 07:04:28;;;;;;;27.60;15.87;;;;;;;1.65;100.00;100500.63;4967116;28;20093;-65
2024/02/29 07:06:56;;;;;;;26.90;16.20;;;;;;;1.72;100.00;100497.09;4954881;28;20200;-69
2024/02/29 07:09:24;;;;;;;27.15;15.82;;;;;;;1.77;100.00;100500.50;4961516;28;20507;-68
2024/02/29 07:11:52;;;;;;;29.17;17.70;;;;;;;1.79;100.00;100496.13;4983995;28;20059;-68
2024/02/29 07:14:21;;;;;;;31.33;16.77;;;;;;;1.90;100.00;100496.00;4965726;28;20050;-68
2024/02/29 07:16:49;;;;;;;26.23;16.02;;;;;;;1.95;100.00;100497.69;4962865;28;20042;-69
2024/02/29 07:19:21;;;;;;;27.40;15.85;;;;;;;1.88;100.00;100477.78;4969179;28;20618;-70
2024/02/29 07:21:49;;;;;;;27.08;15.55;;;;;;;1.99;100.00;100491.56;4962337;28;20121;-68
2024/02/29 07:24:17;;;;;;;30.33;16.15;;;;;;;2.07;100.00;100483.63;4966588;28;20134;-67
2024/02/29 07:26:45;;;;;;;27.92;15.45;;;;;;;2.11;100.00;100483.59;4961141;28;20109;-69
2024/02/29 07:29:14;;;;;;;26.10;16.50;;;;;;;2.20;100.00;100476.56;4962547;28;20418;-66
2024/02/29 07:31:43;;;;;;;30.27;15.82;;;;;;;2.31;100.00;100485.13;4951087;28;20128;-68
2024/02/29 07:34:15;;;;;;;27.75;15.93;;;;;;;2.38;100.00;100479.78;4963845;28;20043;-69
2024/02/29 07:36:45;;;;;;;23.77;15.43;;;;;;;2.49;100.00;100477.06;4963032;28;20141;-66
2024/02/29 07:39:13;;;;;;;25.55;16.17;;;;;;;2.55;100.00;100476.97;4971813;28;20046;-67
2024/02/29 07:41:41;;;;;;;25.27;16.45;;;;;;;2.58;100.00;100471.69;4964956;28;20117;-67
2024/02/29 07:44:10;;;;;;;28.75;16.00;;;;;;;2.67;100.00;100476.81;4969486;28;20047;-73
2024/02/29 07:46:38;;;;;;;29.33;16.85;;;;;;;2.78;100.00;100480.16;4981041;28;20050;-70
2024/02/29 07:49:08;;;;;;;26.25;16.48;;;;;;;2.96;100.00;100488.63;4969959;28;20161;-69
2024/02/29 07:51:37;;;;;;;28.70;16.42;;;;;;;3.08;100.00;100468.38;4992667;28;20097;-69
2024/02/29 07:54:06;;;;;;;29.70;16.63;;;;;;;3.35;100.00;100467.06;4996430;28;20070;-69
2024/02/29 07:56:34;;;;;;;28.73;16.45;;;;;;;3.51;100.00;100457.19;4979565;28;20249;-67
2024/02/29 07:59:04;;;;;;;28.95;16.08;;;;;;;3.65;100.00;100463.03;4982929;28;20074;-68
2024/02/29 08:01:32;;;;;;;28.73;16.58;;;;;;;3.78;100.00;100476.78;4987814;28;20054;-67
2024/02/29 08:04:01;;;;;;;29.73;17.23;;;;;;;3.83;100.00;100469.72;4985003;28;20051;-69
2024/02/29 08:06:29;;;;;;;28.23;16.52;;;;;;;3.93;100.00;100467.81;4980811;28;20078;-66
2024/02/29 08:08:57;;;;;;;30.45;17.33;;;;;;;3.97;100.00;100466.84;4990219;28;20075;-71
2024/02/29 08:11:27;;;;;;;29.20;16.80;;;;;;;4.03;100.00;100462.34;4981570;28;20070;-70
2024/02/29 08:13:55;;;;;;;33.20;16.90;;;;;;;4.05;100.00;100447.47;4992732;28;20517;-70
2024/02/29 08:16:23;;;;;;;27.48;17.13;;;;;;;4.21;100.00;100456.75;4969858;28;20055;-70
2024/02/29 08:18:51;;;;;;;31.33;17.40;;;;;;;4.30;100.00;100453.06;4976900;28;20058;-70
2024/02/29 08:21:19;;;;;;;28.55;18.77;;;;;;;4.29;100.00;100451.34;4966447;28;20055;-70
2024/02/29 08:23:47;;;;;;;34.10;19.45;;;;;;;4.31;100.00;100456.56;4976957;28;20051;-70
2024/02/29 08:26:15;;;;;;;30.88;18.23;;;;;;;4.34;100.00;100448.63;4955811;28;20066;-69
2024/02/29 08:28:46;;;;;;;33.22;17.60;;;;;;;4.50;100.00;100457.91;4977301;28;20069;-70
2024/02/29 08:31:13;;;;;;;32.53;18.55;;;;;;;4.61;100.00;100457.66;4967264;28;20043;-69
2024/02/29 08:33:42;;;;;;;30.10;17.98;;;;;;;4.73;100.00;100450.38;4973119;28;20047;-70
2024/02/29 08:36:11;;;;;;;29.67;17.95;;;;;;;4.81;100.00;100447.59;4966485;28;20039;-70
2024/02/29 08:38:40;;;;;;;30.70;17.73;;;;;;;4.98;100.00;100447.22;4969829;28;20047;-71
2024/02/29 08:41:08;;;;;;;30.48;18.42;;;;;;;4.99;100.00;100451.56;4966504;28;20050;-68
2024/02/29 08:43:36;;;;;;;31.70;18.55;;;;;;;4.92;100.00;100456.09;4981890;28;20059;-70
2024/02/29 08:46:08;;;;;;;34.25;19.17;;;;;;;4.86;100.00;100444.00;4960911;28;20085;-67
2024/02/29 08:48:37;;;;;;;34.20;18.58;;;;;;;4.90;100.00;100450.88;4993070;28;20031;-67
2024/02/29 08:51:06;;;;;;;32.10;18.20;;;;;;;4.97;100.00;100448.97;4988538;28;20074;-64
2024/02/29 08:53:33;;;;;;;33.33;19.65;;;;;;;5.13;100.00;100444.22;4994522;28;20046;-65
2024/02/29 08:56:02;;;;;;;34.75;20.55;;;;;;;5.26;100.00;100440.41;5000748;28;20050;-67
2024/02/29 08:58:31;;;;;;;41.13;21.88;;;;;;;5.33;100.00;100441.13;4972844;28;20059;-67
2024/02/29 09:01:00;;;;;;;39.67;21.92;;;;;;;5.37;100.00;100434.88;4981480;28;20065;-68
2024/02/29 09:03:31;;;;;;;42.73;22.63;;;;;;;5.43;100.00;100442.63;4979309;28;20045;-68
2024/02/29 09:05:59;;;;;;;35.42;21.48;;;;;;;5.49;100.00;100442.47;4964116;28;20122;-67
2024/02/29 09:08:29;;;;;;;41.30;21.60;;;;;;;5.56;100.00;100438.78;4974760;28;20027;-66
2024/02/29 09:10:57;;;;;;;41.20;23.33;;;;;;;5.75;100.00;100437.41;4975687;28;20131;-69
2024/02/29 09:13:25;;;;;;;44.25;24.23;;;;;;;5.79;100.00;100438.19;4990107;28;20046;-66
2024/02/29 09:16:02;;;;;;;45.63;25.63;;;;;;;5.83;100.00;100434.53;4964749;28;20587;-69
2024/02/29 09:18:31;;;;;;;47.03;24.60;;;;;;;6.00;100.00;100429.72;4974404;28;20055;-70
2024/02/29 09:20:59;;;;;;;49.00;26.42;;;;;;;6.25;100.00;100424.66;4968422;28;20042;-68
2024/02/29 09:23:30;;;;;;;45.05;25.15;;;;;;;6.43;100.00;100426.75;4969758;28;20384;-66
2024/02/29 09:25:58;;;;;;;52.05;26.73;;;;;;;6.41;100.00;100418.03;4967227;28;20050;-68
2024/02/29 09:28:28;;;;;;;54.13;30.85;;;;;;;6.38;100.00;100414.63;4971175;28;20039;-68
2024/02/29 09:30:56;;;;;;;59.92;32.75;;;;;;;6.46;100.00;100416.13;4959649;28;20043;-67
2024/02/29 09:33:24;;;;;;;60.00;33.00;;;;;;;6.32;100.00;100405.16;4987636;28;20133;-67
2024/02/29 09:35:57;;;;;;;59.50;31.00;;;;;;;6.27;100.00;100405.31;4974778;28;20050;-68
2024/02/29 09:38:27;;;;;;;57.65;30.80;;;;;;;6.20;100.00;100405.50;4977794;28;20114;-70
2024/02/29 09:40:55;;;;;;;53.17;29.05;;;;;;;6.24;100.00;100400.13;4994662;28;20483;-67
2024/02/29 09:43:39;;;;;;;54.03;29.42;;;;;;;6.48;100.00;100389.78;4996666;28;20100;-69
2024/02/29 09:46:10;;;;;;;54.88;30.35;;;;;;;6.69;100.00;100397.88;4978769;28;20046;-68
2024/02/29 09:48:39;;;;;;;52.55;29.70;;;;;;;6.67;100.00;100390.94;4987373;28;20074;-65
2024/02/29 09:51:14;;;;;;;54.78;30.85;;;;;;;6.47;100.00;100388.91;4994944;28;20058;-65
2024/02/29 09:53:43;;;;;;;58.05;31.40;;;;;;;6.42;100.00;100388.22;4993755;28;20054;-69
2024/02/29 09:56:14;;;;;;;57.40;30.73;;;;;;;6.51;100.00;100384.41;4966218;28;20047;-68
2024/02/29 09:58:43;;;;;;;61.85;31.48;;;;;;;6.65;100.00;100377.81;4968449;28;20043;-69
2024/02/29 10:01:11;;;;;;;57.00;31.58;;;;;;;6.89;100.00;100364.81;4985230;28;20474;-68
2024/02/29 10:03:42;;;;;;;62.50;33.47;;;;;;;7.09;100.00;100375.53;4951247;28;20487;-69
2024/02/29 10:06:13;;;;;;;;;;;;;;;7.01;100.00;100369.66;4968541;28;20050;-69
2024/02/29 10:08:41;;;;;;;57.78;30.90;;;;;;;7.12;100.00;100366.66;4967780;28;19934;-69
2024/02/29 10:11:09;;;;;;;59.80;31.65;;;;;;;7.37;100.00;100367.59;4964211;28;20571;-67
2024/02/29 10:13:38;;;;;;;60.28;32.45;;;;;;;7.44;100.00;100357.69;4966398;28;20042;-69
2024/02/29 10:16:11;;;;;;;64.40;32.97;;;;;;;7.19;100.00;100344.50;4964319;28;20046;-65
2024/02/29 10:18:40;;;;;;;62.72;32.05;;;;;;;7.08;100.00;100334.34;4948153;28;20074;-67
2024/02/29 10:21:14;;;;;;;60.35;31.10;;;;;;;7.17;100.00;100352.44;4979350;28;20181;-69
2024/02/29 10:23:43;;;;;;;55.80;31.80;;;;;;;7.16;100.00;100341.97;4967505;28;20050;-66
2024/02/29 10:26:14;;;;;;;55.40;30.02;;;;;;;7.24;100.00;100346.03;4967046;28;20090;-65
2024/02/29 10:28:44;;;;;;;59.53;31.48;;;;;;;7.38;100.00;100343.81;4964039;28;20050;-68
2024/02/29 10:31:15;;;;;;;54.88;31.05;;;;;;;7.59;100.00;100342.19;4964622;28;20051;-69
2024/02/29 10:33:48;;;;;;;56.15;31.23;;;;;;;7.77;100.00;100340.66;4947100;28;20050;-70
2024/02/29 10:36:20;;;;;;;53.40;28.63;;;;;;;8.00;100.00;100326.66;4985414;28;20066;-65
2024/02/29 10:38:49;;;;;;;49.70;27.48;;;;;;;8.19;100.00;100325.03;4984408;28;20054;-65
2024/02/29 10:41:18;;;;;;;55.33;30.13;;;;;;;8.17;100.00;100323.38;4981949;28;20121;-69
2024/02/29 10:43:51;;;;;;;55.80;29.65;;;;;;;8.09;100.00;100318.38;4958729;28;20130;-69
2024/02/29 10:46:20;;;;;;;50.58;28.02;;;;;;;8.23;100.00;100317.84;4966092;28;20412;-66
2024/02/29 10:48:55;;;;;;;48.53;29.05;;;;;;;8.19;100.00;100317.09;4961301;28;20035;-67
2024/02/29 10:51:36;;;;;;;48.45;27.80;;;;;;;7.85;100.00;100312.28;4968497;28;20054;-67
2024/02/29 10:54:15;;;;;;;50.60;27.10;;;;;;;7.66;100.00;100311.22;4979273;28;20039;-68
2024/02/29 10:56:48;;;;;;;51.15;28.38;;;;;;;7.74;100.00;100306.50;4979293;28;20574;-67
2024/02/29 10:59:19;;;;;;;50.88;28.52;;;;;;;7.97;100.00;100296.00;4967289;28;20133;-67
2024/02/29 11:01:56;;;;;;;55.20;29.30;;;;;;;8.28;100.00;100293.03;4969063;28;20061;-68
2024/02/29 11:04:25;;;;;;;51.58;27.73;;;;;;;8.56;100.00;100287.53;4962034;28;20049;-69
2024/02/29 11:06:57;;;;;;;51.45;29.20;;;;;;;8.73;100.00;100281.56;4961492;28;20105;-69
2024/02/29 11:09:26;;;;;;;50.00;28.77;;;;;;;8.81;100.00;100276.00;4965935;28;20110;-69
2024/02/29 11:12:09;;;;;;;47.67;28.40;;;;;;;8.66;100.00;100265.13;4965783;28;20049;-66
2024/02/29 11:14:37;;;;;;;48.30;27.17;;;;;;;8.50;100.00;100269.31;4968151;28;20129;-65
2024/02/29 11:17:05;;;;;;;47.72;26.95;;;;;;;8.41;100.00;100270.53;4961894;28;20050;-65
2024/02/29 11:19:34;;;;;;;48.90;26.98;;;;;;;8.34;100.00;100252.41;4964459;28;20057;-69
2024/02/29 11:22:21;;;;;;;56.67;29.13;;;;;;;8.52;100.00;100250.75;4970287;28;20051;-69